Latest Weather Observations for Lochington

IDQ60801

Issued at 7:35 am EST Tuesday 25 November 2014 (issued every 30 minutes, with the page automatically refreshed every 10 minutes)

About weather observations | Map of weather stations | Latest weather observations for QLD | Other Formats
Station Details ID: 035139 Name: LOCHINGTON Lat: -23.94 Lon: 147.53 Height: 267.19 m
Data from the previous 72 hours. | See also: Recent months at Lochington
Date/Time
EST
Temp
°C
App
Temp
°C
Dew
Point
Rel
Hum
%
Delta-T
°C
Wind Press
QNH
hPa
Press
MSL
hPa
Rain
since 9 am
mm
Dir
 
Spd
km/h
Gust
km/h
Spd
kts
Gust
kts
25/07:30am 25.4 26.2 18.1 64 4.6 E 11 17 6 9 1015.8 1014.2 0.0
25/07:00am 24.8 25.3 18.3 67 4.1 NE 13 19 7 10 1015.7 1014.1 0.0
25/06:30am 23.8 24.4 17.8 69 3.8 ENE 11 15 6 8 1015.3 1013.7 0.0
25/06:00am 22.9 23.8 17.6 72 3.3 ENE 9 13 5 7 1014.9 1013.3 0.0
25/05:30am 22.0 22.8 17.2 74 3.0 E 9 13 5 7 1014.4 1012.8 0.0
25/05:00am 21.5 22.1 16.7 74 3.0 E 9 11 5 6 1014.4 1012.8 0.0
25/04:30am 21.8 23.1 16.1 70 3.5 E 4 6 2 3 1014.2 1012.6 0.0
25/04:00am 22.4 23.2 16.4 69 3.7 ENE 7 11 4 6 1013.8 1012.2 0.0
25/03:30am 22.7 23.8 16.5 68 3.8 ENE 6 9 3 5 1013.6 1012.0 0.0
25/03:00am 23.1 23.9 16.4 66 4.1 ENE 7 9 4 5 1013.7 1012.1 0.0
25/02:30am 23.6 23.7 16.4 64 4.4 NE 11 19 6 10 1013.2 1011.5 0.0
25/02:00am 24.0 23.0 16.5 63 4.6 NE 17 26 9 14 1013.1 1011.4 0.0
25/01:30am 24.4 23.9 16.9 63 4.7 NE 15 20 8 11 1013.2 1011.5 0.0
25/01:00am 24.9 23.5 17.1 62 4.9 NE 20 32 11 17 1013.1 1011.4 0.0
25/12:30am 25.4 25.1 17.3 61 5.1 NE 15 22 8 12 1013.4 1011.8 0.0
25/12:00am 26.1 25.6 16.9 57 5.8 NE 15 26 8 14 1013.6 1012.0 0.0
 
Date/Time
EST
Temp
°C
App
Temp
°C
Dew
Point
Rel
Hum
%
Delta-T
°C
Wind Press
QNH
hPa
Press
MSL
hPa
Rain
since 9 am
mm
Dir
 
Spd
km/h
Gust
km/h
Spd
kts
Gust
kts
24/11:30pm 26.7 25.8 16.9 55 6.2 NE 17 26 9 14 1013.9 1012.3 0.0
24/11:00pm 27.6 26.2 16.6 51 6.9 NE 19 30 10 16 1013.8 1012.2 0.0
24/10:30pm 28.4 26.9 16.3 47 7.6 NE 19 24 10 13 1013.8 1012.2 0.0
24/10:00pm 28.6 27.3 11.2 34 10.1 ENE 9 15 5 8 1013.5 1011.9 0.0
24/09:30pm 29.1 27.9 10.3 31 10.8 ENE 7 11 4 6 1013.1 1011.4 0.0
24/09:00pm 29.7 28.0 9.8 29 11.3 ENE 9 11 5 6 1012.4 1010.7 0.0
24/08:30pm 30.2 28.5 9.7 28 11.7 ENE 9 15 5 8 1012.1 1010.5 0.0
24/08:00pm 30.6 28.8 9.5 27 12.0 ENE 9 11 5 6 1011.9 1010.3 0.0
24/07:30pm 30.9 29.5 9.7 27 12.1 E 7 9 4 5 1011.7 1010.1 0.0
24/07:00pm 31.7 30.1 8.7 24 13.0 ENE 7 9 4 5 1011.6 1010.0 0.0
24/06:30pm 32.7 30.9 9.5 24 13.3 E 9 15 5 8 1011.2 1009.6 0.0
24/06:00pm 33.9 31.5 8.5 21 14.5 E 11 17 6 9 1010.9 1009.3 0.0
24/05:30pm 34.2 31.8 8.8 21 14.5 ENE 11 20 6 11 1010.7 1009.1 0.0
24/05:00pm 34.9 32.5 10.0 22 14.6 NE 13 19 7 10 1010.3 1008.7 0.0
24/04:30pm 35.0 32.4 9.4 21 14.8 ENE 13 20 7 11 1010.3 1008.7 0.0
24/04:00pm 35.0 31.5 8.7 20 15.1 E 17 28 9 15 1010.4 1008.8 0.0
24/03:30pm 35.3 31.5 9.7 21 14.9 ENE 20 24 11 13 1010.6 1009.0 0.0
24/03:00pm 36.1 32.4 9.6 20 15.5 ENE 19 24 10 13 1011.1 1009.5 0.0
24/02:30pm 35.5 31.7 9.8 21 15.0 ENE 20 32 11 17 1011.6 1010.0 0.0
24/02:00pm 34.0 31.9 9.9 23 14.0 NE 11 20 6 11 1012.1 1010.5 0.0
24/01:30pm 34.4 32.4 11.5 25 13.7 ENE 13 30 7 16 1012.7 1011.0 0.0
24/01:00pm 34.2 31.6 12.0 26 13.3 E 17 28 9 15 1013.1 1011.4 0.0
24/12:30pm 33.0 30.8 12.1 28 12.5 NNE 15 41 8 22 1013.7 1012.1 0.0
24/12:00pm 32.1 29.7 11.3 28 12.2 ENE 15 24 8 13 1014.4 1012.8 0.0
24/11:30am 32.5 30.5 12.7 30 11.9 ENE 15 26 8 14 1014.7 1013.1 0.0
24/11:00am 31.2 29.5 12.5 31 11.2 ENE 13 30 7 16 1015.3 1013.7 0.0
24/10:30am 30.9 28.7 13.2 34 10.7 ENE 17 26 9 14 1015.8 1014.2 0.0
24/10:00am 29.6 27.7 14.2 39 9.4 NNE 17 28 9 15 1016.2 1014.5 0.0
24/09:30am 28.8 26.5 14.6 42 8.7 NE 20 30 11 16 1016.4 1014.7 0.0
24/09:00am 28.6 27.2 15.5 45 8.1 NE 17 28 9 15 1016.7 1015.0 0.0
24/08:30am 27.2 25.8 15.6 49 7.2 NE 17 24 9 13 1016.9 1015.3 0.0
24/08:00am 26.8 26.5 17.3 56 6.0 NE 15 26 8 14 1016.9 1015.3 0.0
24/07:30am 25.4 24.7 17.3 61 5.1 NE 17 26 9 14 1016.9 1015.3 0.0
24/07:00am 24.3 23.8 17.8 67 4.1 NE 17 24 9 13 1016.7 1015.0 0.0
24/06:30am 23.9 24.0 18.3 71 3.6 ENE 15 20 8 11 1016.4 1014.7 0.0
24/06:00am 22.7 23.4 18.0 75 3.0 E 11 17 6 9 1016.2 1014.5 0.0
24/05:30am 22.6 23.4 18.2 76 2.8 E 11 15 6 8 1015.8 1014.2 0.0
24/05:00am 22.8 23.9 17.9 74 3.1 ENE 9 17 5 9 1015.8 1014.2 0.0
24/04:30am 23.1 23.7 17.8 72 3.3 ENE 11 15 6 8 1015.3 1013.7 0.0
24/04:00am 23.4 24.0 17.8 71 3.5 ENE 11 17 6 9 1015.2 1013.6 0.0
24/03:30am 23.7 23.9 17.7 69 3.8 ENE 13 19 7 10 1014.9 1013.3 0.0
24/03:00am 24.1 24.7 17.6 67 4.1 NE 11 15 6 8 1014.8 1013.2 0.0
24/02:30am 24.4 24.1 17.4 65 4.4 NE 15 20 8 11 1014.7 1013.1 0.0
24/02:00am 24.9 24.5 17.1 62 4.9 NE 15 22 8 12 1014.6 1013.0 0.0
24/01:30am 25.5 24.5 16.6 58 5.5 NE 17 24 9 13 1014.6 1013.0 0.0
24/01:00am 26.0 24.8 16.0 54 6.2 NE 17 22 9 12 1014.8 1013.2 0.0
24/12:30am 26.8 26.1 15.5 50 7.0 NE 13 24 7 13 1014.9 1013.3 0.0
24/12:00am 27.6 25.5 15.3 47 7.6 NE 20 33 11 18 1014.8 1013.2 0.0
 
Date/Time
EST
Temp
°C
App
Temp
°C
Dew
Point
Rel
Hum
%
Delta-T
°C
Wind Press
QNH
hPa
Press
MSL
hPa
Rain
since 9 am
mm
Dir
 
Spd
km/h
Gust
km/h
Spd
kts
Gust
kts
23/11:30pm 28.5 26.0 15.1 44 8.2 NE 22 35 12 19 1014.8 1013.2 0.0
23/11:00pm 29.6 27.9 12.5 35 10.2 ENE 13 22 7 12 1014.5 1012.9 0.0
23/10:30pm 30.0 28.9 12.0 33 10.6 ENE 9 15 5 8 1014.3 1012.7 0.0
23/10:00pm 30.5 29.8 11.9 31 11.0 NE 7 11 4 6 1013.9 1012.3 0.0
23/09:30pm 30.9 30.3 12.3 32 11.1 NE 7 11 4 6 1013.7 1012.1 0.0
23/09:00pm 31.4 31.1 12.7 32 11.2 NE 6 9 3 5 1013.6 1012.0 0.0
23/08:30pm 31.8 31.6 13.1 32 11.3 NE 6 7 3 4 1013.3 1011.6 0.0
23/08:00pm 32.6 32.1 12.8 30 12.0 NE 7 11 4 6 1012.9 1011.2 0.0
23/07:30pm 33.3 31.9 12.3 28 12.6 NE 11 17 6 9 1012.5 1010.8 0.0
23/07:00pm 33.8 32.0 12.2 27 13.0 NE 13 17 7 9 1012.0 1010.4 0.0
23/06:30pm 34.4 32.6 12.1 26 13.4 ENE 13 22 7 12 1011.8 1010.2 0.0
23/06:00pm 35.2 33.0 12.2 25 13.9 ENE 15 22 8 12 1011.6 1010.0 0.0
23/05:30pm 35.8 33.8 12.7 25 14.1 NE 15 22 8 12 1011.4 1009.8 0.0
23/05:00pm 36.7 34.3 12.8 24 14.7 NNE 17 28 9 15 1011.3 1009.7 0.0
23/04:30pm 37.3 34.9 12.7 23 15.1 N 17 26 9 14 1011.0 1009.4 0.0
23/04:00pm 37.4 34.7 12.8 23 15.1 ENE 19 32 10 17 1011.3 1009.7 0.0
23/03:30pm 36.8 34.8 11.6 22 15.2 ENE 13 24 7 13 1011.6 1010.0 0.0
23/03:00pm 37.1 35.3 13.2 24 14.8 E 15 24 8 13 1012.1 1010.5 0.0
23/02:30pm 37.1 36.4 14.4 26 14.3 ENE 11 22 6 12 1012.7 1011.0 0.0
23/02:00pm 36.0 35.4 14.6 27 13.4 E 11 19 6 10 1013.2 1011.5 0.0
23/01:30pm 37.1 37.6 16.6 29 13.3 E 9 22 5 12 1013.5 1011.9 0.0
23/01:00pm 36.0 36.7 16.2 31 12.7 ESE 7 20 4 11 1014.0 1012.4 0.0
23/12:30pm 35.2 34.9 15.5 30 12.5 E 11 20 6 11 1014.4 1012.8 0.0
23/12:00pm 34.4 34.0 15.3 31 12.0 NNE 11 24 6 13 1015.1 1013.5 0.0
23/11:30am 33.5 33.2 15.5 34 11.3 NE 11 24 6 13 1015.5 1013.9 0.0
23/11:00am 32.9 33.5 16.7 38 10.4 NE 9 17 5 9 1016.3 1014.6 0.0
23/10:30am 32.6 33.2 16.8 38 10.1 NE 9 22 5 12 1016.6 1014.9 0.0
23/10:00am 32.0 31.8 16.7 40 9.8 ENE 13 22 7 12 1016.8 1015.2 0.0
23/09:30am 31.1 31.7 16.7 42 9.2 N 9 19 5 10 1017.2 1015.6 0.0
23/09:00am 30.2 30.5 16.9 44 8.5 NE 11 19 6 10 1017.2 1015.6 0.0
23/08:30am 28.9 29.2 17.1 49 7.5 NNE 11 17 6 9 1017.3 1015.7 0.0
23/08:00am 28.2 28.2 17.1 51 7.0 NNE 13 24 7 13 1017.2 1015.6 0.0
23/07:30am 26.8 26.0 17.0 55 6.2 NNE 17 22 9 12 1017.2 1015.6 0.0
23/07:00am 26.3 25.9 17.1 57 5.8 NE 15 20 8 11 1016.9 1015.3 0.0
23/06:30am 25.6 25.0 16.7 58 5.6 NE 15 20 8 11 1016.4 1014.7 0.0
23/06:00am 25.1 25.5 16.3 58 5.4 ENE 9 13 5 7 1016.0 1014.4 0.0
23/05:30am 24.4 25.1 16.1 60 5.1 ENE 7 11 4 6 1015.4 1013.8 0.0
23/05:00am 24.6 24.8 15.8 58 5.4 ENE 9 19 5 10 1014.9 1013.3 0.0
23/04:30am 25.0 24.4 15.6 56 5.8 ENE 13 19 7 10 1014.3 1012.7 0.0
23/04:00am 25.1 24.8 15.4 55 5.9 ENE 11 17 6 9 1014.1 1012.5 0.0
23/03:30am 25.5 25.1 15.2 53 6.3 NE 11 17 6 9 1013.8 1012.2 0.0
23/03:00am 25.9 25.5 15.3 52 6.5 ENE 11 19 6 10 1013.8 1012.2 0.0
23/02:30am 26.4 25.6 15.1 49 6.9 NE 13 20 7 11 1013.6 1012.0 0.0
23/02:00am 26.7 25.5 15.1 49 7.1 ENE 15 22 8 12 1013.5 1011.9 0.0
23/01:30am 27.3 26.2 15.3 48 7.4 NE 15 22 8 12 1013.2 1011.5 0.0
23/01:00am 27.9 26.9 15.5 46 7.7 NE 15 20 8 11 1013.3 1011.6 0.0
23/12:30am 28.7 27.4 15.9 45 8.0 NE 17 28 9 15 1013.4 1011.8 0.0
23/12:00am 29.2 28.8 17.1 48 7.7 NE 15 22 8 12 1013.4 1011.8 0.0
 
Date/Time
EST
Temp
°C
App
Temp
°C
Dew
Point
Rel
Hum
%
Delta-T
°C
Wind Press
QNH
hPa
Press
MSL
hPa
Rain
since 9 am
mm
Dir
 
Spd
km/h
Gust
km/h
Spd
kts
Gust
kts
22/11:30pm 29.9 30.1 17.7 48 7.8 NNE 13 19 7 10 1013.1 1011.4 0.0
22/11:00pm 30.7 29.6 17.4 45 8.5 NE 19 26 10 14 1013.1 1011.4 0.0
22/10:30pm 31.5 30.1 16.6 40 9.5 NE 19 30 10 16 1013.1 1011.4 0.0
22/10:00pm 32.1 31.9 15.6 37 10.4 NE 11 19 6 10 1013.0 1011.3 0.0
22/09:30pm 32.2 32.6 15.2 35 10.6 ENE 7 9 4 5 1012.8 1011.1 0.0
22/09:00pm 32.7 33.1 15.2 34 11.0 NE 7 9 4 5 1012.4 1010.7 0.0
22/08:30pm 33.3 33.9 15.3 34 11.3 NE 6 9 3 5 1012.3 1010.6 0.0
22/08:00pm 33.8 34.2 15.3 33 11.6 NE 7 11 4 6 1011.7 1010.1 0.0
22/07:30pm 34.3 34.1 14.7 30 12.2 NE 9 11 5 6 1011.3 1009.7 0.0
22/07:00pm 35.1 34.6 14.9 29 12.7 ENE 11 20 6 11 1010.9 1009.3 0.0
22/06:30pm 35.7 34.2 15.4 29 12.9 E 17 24 9 13 1010.5 1008.9 0.0
22/06:00pm 36.4 36.3 16.0 29 13.1 ENE 11 19 6 10 1010.3 1008.7 0.0
22/05:30pm 37.1 36.4 14.4 26 14.3 ENE 11 22 6 12 1010.0 1008.3 0.0
22/05:00pm 37.0 36.3 14.3 26 14.3 NE 11 17 6 9 1009.6 1007.9 0.0
22/04:30pm 38.1 37.7 14.0 24 15.1 ENE 9 19 5 10 1009.7 1008.0 0.0
22/04:00pm 38.4 38.2 13.6 23 15.5 E 7 15 4 8 1009.7 1008.0 0.0
22/03:30pm 38.0 38.3 13.3 23 15.3 NE 4 11 2 6 1009.9 1008.2 0.0
22/03:00pm 38.1 37.4 13.3 22 15.4 E 9 15 5 8 1010.3 1008.7 0.0
22/02:30pm 38.2 38.4 14.7 24 14.9 NNW 7 20 4 11 1010.8 1009.2 0.0
22/02:00pm 37.1 37.4 14.4 26 14.3 N 6 9 3 5 1011.2 1009.6 0.0
22/01:30pm 37.0 36.5 14.9 27 14.0 NE 11 19 6 10 1011.7 1010.1 0.0
22/01:00pm 36.6 36.6 15.1 27 13.6 ENE 9 17 5 9 1012.5 1010.8 0.0
22/12:30pm 36.1 35.7 16.3 31 12.7 N 13 20 7 11 1012.8 1011.1 0.0
22/12:00pm 35.2 35.3 16.5 33 12.0 NNE 11 24 6 13 1013.4 1011.8 0.0
22/11:30am 34.5 35.3 16.4 34 11.6 NNE 7 20 4 11 1013.8 1012.2 0.0
22/11:00am 33.2 33.1 16.1 35 10.9 NNW 11 20 6 11 1014.4 1012.8 0.0
22/10:30am 32.5 32.4 15.9 36 10.5 N 11 19 6 10 1014.8 1013.2 0.0
22/10:00am 32.1 33.4 17.6 42 9.4 NNE 7 15 4 8 1015.0 1013.4 0.0
22/09:30am 30.4 31.5 17.1 44 8.5 NNE 7 17 4 9 1015.6 1014.0 0.0
22/09:00am 29.6 30.6 17.8 49 7.6 N 9 17 5 9 1015.6 1014.0 0.0
22/08:30am 28.7 29.0 17.9 52 6.9 NNE 13 19 7 10 1015.5 1013.9 0.0
22/08:00am 27.8 28.2 18.2 56 6.2 NE 13 20 7 11 1015.4 1013.8 0.0

Other Formats:

Comma delimited format used in spreadsheet applications
http://www.bom.gov.au/fwo/IDQ60801/IDQ60801.94399.axf

JavaScript Object Notation format (JSON) in row-major order
http://www.bom.gov.au/fwo/IDQ60801/IDQ60801.94399.json